Aztec, New Mexico
Current Conditions -  °F | °C
As of 4:53 PM on Friday 28 Nov 2014 (Local Time) from KFMN Reporting Station
Clear Clear  
Wind Chill: 57°   Ceiling: Unl
Heat Index: 57°   Visibility: 10mi
Dew Point: 13°   Wind: 0mph
Humidity: 18%   Direction: NA
Pressure: 30.06"   Gusts: NA
Location:  36.83°N, 107.99°W
Report Text: KFMN 282353Z 00000KT 10SM CLR 14/M11 A3006 RMK AO2 SLP174 T01391106 10167 20078 56014
Loading
Personal Weather Stations






























Interactive Weather Map New forecast layout! Learn more

10-Day Weather Forecast

Advertisements
Track Severe Weather on mobile